Hamilton, MA (01936)

3:53 PM EST on January 29, 2015 (GMT -0500)
Ipswich Fire Dept. HQ | Change Station
CLOSE
Current Station
Personal Weather Station
Location: Ipswich, MA
Elevation: 35 ft
Nearby Weather Stations
Active Advisory: Winter Weather Advisory

Elev 35 ft 42.68 °N, 70.84 °W | Updated 2 minutes ago

Clear
Clear
31.3 °F
Feels Like 31 °F
N
1.0
Wind Variable Wind from ESE
Gusts 6.0 mph

Today
High -- | Low -- °F
--% Chance of Precip.
Yesterday
High -- | Low -- °F
Precip. -- in
7:00 AM 4:52 PM
Waxing Gibbous, 77% visible
Pressure 30.19 in
Visibility 10.0 miles
Clouds Clear
Windchill 31 °F
Dew Point 22 °F
Humidity 67%
Rainfall -999.00 in
Snow Depth Not available.
UV 16.0 out of 12
Pollen .10 out of 12
Air Quality Not available.
Flu Activity Not available.
METAR KBVY 291953Z 16007KT 10SM CLR M01/M08 A3019 RMK AO2 SLP223 T10061083

More Conditions Fewer Conditions

Pressure 30.19 in
Visibility 10.0 miles
Clouds Clear
Windchill 31 °F
Dew Point 22 °F
Humidity 67%
Rainfall -999.00 in
Snow Depth Not available.
UV 16.0 out of 12
Pollen .10 out of 12
Air Quality Not available.
Flu Activity Not available.
METAR KBVY 291953Z 16007KT 10SM CLR M01/M08 A3019 RMK AO2 SLP223 T10061083

More Conditions Fewer Conditions

10-Day Weather Forecast

Almanac

Astronomy

Jan. 29, 2015 Rise Set
Actual Time
Civil Twilight
Nautical Twilight
Astronomical Twilight
Moon
Length of Visible Light
Length of Day
Tomorrow will be .
, % of the Moon is Illuminated

Today's Extremes

State Highs State Lows

Community

WunderPhotos

Upload Photos

1,791,594 photos uploaded!

WunderBlogs® & News

Nearby

Air Quality

  Air Quality AQ Index Pollutant
Not available.

Snow Depth

Station Depth Elevation

Earthquake Activity

City Distance Mag. Time & Date
Minimum magnitude displayed is 2.5.

Coastal Water Temperatures

Place Temperature

Nearby Weather Stations